sensor_id;sensor_type;location;lat;lon;timestamp;P1;durP1;ratioP1;P2;durP2;ratioP2
6561;SDS011;3314;50.890;4.722;2022-08-30T00:01:11;10.9;;;2.3;;
6561;SDS011;3314;50.890;4.722;2022-08-30T00:02:11;12.2;;;3.1;;
6561;SDS011;3314;50.890;4.722;2022-08-30T00:04:11;13.2;;;2.5;;
6561;SDS011;3314;50.890;4.722;2022-08-30T00:06:11;11.6;;;3.0;;
6561;SDS011;3314;50.890;4.722;2022-08-30T00:08:11;16.1;;;2.8;;
6561;SDS011;3314;50.890;4.722;2022-08-30T00:10:12;12.2;;;2.6;;
6561;SDS011;3314;50.890;4.722;2022-08-30T00:12:03;10.8;;;3.1;;
6561;SDS011;3314;50.890;4.722;2022-08-30T00:14:03;11.2;;;2.5;;
6561;SDS011;3314;50.890;4.722;2022-08-30T00:16:03;9.3;;;2.3;;
6561;SDS011;3314;50.890;4.722;2022-08-30T00:18:03;11.9;;;3.0;;
6561;SDS011;3314;50.890;4.722;2022-08-30T00:20:03;13.2;;;2.8;;
6561;SDS011;3314;50.890;4.722;2022-08-30T00:22:03;10.8;;;2.4;;
6561;SDS011;3314;50.890;4.722;2022-08-30T00:24:04;13.8;;;2.8;;
6561;SDS011;3314;50.890;4.722;2022-08-30T00:26:04;14.4;;;2.5;;
6561;SDS011;3314;50.890;4.722;2022-08-30T00:28:04;13.2;;;2.4;;
6561;SDS011;3314;50.890;4.722;2022-08-30T00:30:05;10.0;;;2.4;;
6561;SDS011;3314;50.890;4.722;2022-08-30T00:32:05;14.7;;;2.8;;
6561;SDS011;3314;50.890;4.722;2022-08-30T00:34:04;14.1;;;3.3;;
6561;SDS011;3314;50.890;4.722;2022-08-30T00:36:04;10.4;;;3.0;;
6561;SDS011;3314;50.890;4.722;2022-08-30T00:38:04;9.4;;;2.8;;
6561;SDS011;3314;50.890;4.722;2022-08-30T00:40:05;13.1;;;2.6;;
6561;SDS011;3314;50.890;4.722;2022-08-30T00:42:06;9.7;;;2.9;;
6561;SDS011;3314;50.890;4.722;2022-08-30T00:44:07;12.9;;;2.9;;
6561;SDS011;3314;50.890;4.722;2022-08-30T00:46:09;9.4;;;2.2;;
6561;SDS011;3314;50.890;4.722;2022-08-30T00:48:09;13.9;;;3.3;;
6561;SDS011;3314;50.890;4.722;2022-08-30T00:50:09;13.7;;;2.8;;
6561;SDS011;3314;50.890;4.722;2022-08-30T00:52:09;12.3;;;3.3;;
6561;SDS011;3314;50.890;4.722;2022-08-30T00:54:08;12.9;;;2.7;;
6561;SDS011;3314;50.890;4.722;2022-08-30T00:56:09;11.6;;;2.9;;
6561;SDS011;3314;50.890;4.722;2022-08-30T00:58:01;11.1;;;2.6;;
6561;SDS011;3314;50.890;4.722;2022-08-30T01:00:03;10.8;;;2.4;;
6561;SDS011;3314;50.890;4.722;2022-08-30T01:02:03;10.7;;;2.8;;
6561;SDS011;3314;50.890;4.722;2022-08-30T01:04:03;12.4;;;2.9;;
6561;SDS011;3314;50.890;4.722;2022-08-30T01:06:04;10.1;;;2.9;;
6561;SDS011;3314;50.890;4.722;2022-08-30T01:08:04;15.9;;;3.4;;
6561;SDS011;3314;50.890;4.722;2022-08-30T01:10:05;13.4;;;2.7;;
6561;SDS011;3314;50.890;4.722;2022-08-30T01:12:05;10.2;;;2.6;;
6561;SDS011;3314;50.890;4.722;2022-08-30T01:14:05;10.7;;;2.6;;
6561;SDS011;3314;50.890;4.722;2022-08-30T01:16:05;11.0;;;3.1;;
6561;SDS011;3314;50.890;4.722;2022-08-30T01:18:05;13.3;;;3.3;;
6561;SDS011;3314;50.890;4.722;2022-08-30T01:20:06;11.1;;;2.8;;
6561;SDS011;3314;50.890;4.722;2022-08-30T01:22:09;18.3;;;3.2;;
6561;SDS011;3314;50.890;4.722;2022-08-30T01:23:58;10.1;;;2.5;;
6561;SDS011;3314;50.890;4.722;2022-08-30T01:25:59;10.8;;;3.2;;
6561;SDS011;3314;50.890;4.722;2022-08-30T01:28:02;15.2;;;3.1;;
6561;SDS011;3314;50.890;4.722;2022-08-30T01:30:03;11.0;;;2.5;;
6561;SDS011;3314;50.890;4.722;2022-08-30T01:32:04;11.8;;;2.9;;
6561;SDS011;3314;50.890;4.722;2022-08-30T01:34:06;20.3;;;3.4;;
6561;SDS011;3314;50.890;4.722;2022-08-30T01:36:07;13.5;;;2.4;;
6561;SDS011;3314;50.890;4.722;2022-08-30T01:37:56;12.4;;;2.8;;
6561;SDS011;3314;50.890;4.722;2022-08-30T01:39:56;10.4;;;2.5;;
6561;SDS011;3314;50.890;4.722;2022-08-30T01:41:56;14.4;;;3.6;;
6561;SDS011;3314;50.890;4.722;2022-08-30T01:43:57;8.9;;;2.7;;
6561;SDS011;3314;50.890;4.722;2022-08-30T01:45:57;17.0;;;3.0;;
6561;SDS011;3314;50.890;4.722;2022-08-30T01:47:57;14.0;;;3.6;;
6561;SDS011;3314;50.890;4.722;2022-08-30T01:49:57;13.0;;;2.9;;
6561;SDS011;3314;50.890;4.722;2022-08-30T01:51:57;10.4;;;3.0;;
6561;SDS011;3314;50.890;4.722;2022-08-30T01:53:57;12.3;;;3.4;;
6561;SDS011;3314;50.890;4.722;2022-08-30T01:55:57;13.4;;;3.0;;
6561;SDS011;3314;50.890;4.722;2022-08-30T01:57:57;11.6;;;3.1;;
6561;SDS011;3314;50.890;4.722;2022-08-30T01:59:57;14.3;;;3.8;;
6561;SDS011;3314;50.890;4.722;2022-08-30T02:01:56;12.5;;;2.8;;
6561;SDS011;3314;50.890;4.722;2022-08-30T02:03:56;13.0;;;3.4;;
6561;SDS011;3314;50.890;4.722;2022-08-30T02:05:56;9.7;;;2.9;;
6561;SDS011;3314;50.890;4.722;2022-08-30T02:07:56;12.8;;;3.1;;
6561;SDS011;3314;50.890;4.722;2022-08-30T02:09:56;11.2;;;3.8;;
6561;SDS011;3314;50.890;4.722;2022-08-30T02:11:55;15.9;;;3.4;;
6561;SDS011;3314;50.890;4.722;2022-08-30T02:13:55;13.6;;;3.1;;
6561;SDS011;3314;50.890;4.722;2022-08-30T02:15:55;11.2;;;3.3;;
6561;SDS011;3314;50.890;4.722;2022-08-30T02:17:55;12.4;;;2.7;;
6561;SDS011;3314;50.890;4.722;2022-08-30T02:19:55;12.9;;;3.1;;
6561;SDS011;3314;50.890;4.722;2022-08-30T02:21:54;10.5;;;2.9;;
6561;SDS011;3314;50.890;4.722;2022-08-30T02:23:54;16.5;;;3.2;;
6561;SDS011;3314;50.890;4.722;2022-08-30T02:25:54;12.1;;;3.1;;
6561;SDS011;3314;50.890;4.722;2022-08-30T02:27:54;12.8;;;3.3;;
6561;SDS011;3314;50.890;4.722;2022-08-30T02:29:53;15.1;;;3.8;;
6561;SDS011;3314;50.890;4.722;2022-08-30T02:31:53;12.1;;;3.1;;
6561;SDS011;3314;50.890;4.722;2022-08-30T02:33:53;9.2;;;2.8;;
6561;SDS011;3314;50.890;4.722;2022-08-30T02:35:52;10.7;;;2.8;;
6561;SDS011;3314;50.890;4.722;2022-08-30T02:37:52;13.0;;;3.6;;
6561;SDS011;3314;50.890;4.722;2022-08-30T02:39:52;11.4;;;2.8;;
6561;SDS011;3314;50.890;4.722;2022-08-30T02:41:52;13.2;;;4.2;;
6561;SDS011;3314;50.890;4.722;2022-08-30T02:43:57;11.9;;;3.0;;
6561;SDS011;3314;50.890;4.722;2022-08-30T02:45:57;16.0;;;3.7;;
6561;SDS011;3314;50.890;4.722;2022-08-30T02:47:57;12.5;;;3.3;;
6561;SDS011;3314;50.890;4.722;2022-08-30T02:49:56;15.7;;;3.7;;
6561;SDS011;3314;50.890;4.722;2022-08-30T02:51:56;11.6;;;3.1;;
6561;SDS011;3314;50.890;4.722;2022-08-30T02:53:56;13.9;;;2.9;;
6561;SDS011;3314;50.890;4.722;2022-08-30T02:55:55;12.0;;;2.9;;
6561;SDS011;3314;50.890;4.722;2022-08-30T02:57:55;13.1;;;2.6;;
6561;SDS011;3314;50.890;4.722;2022-08-30T02:59:55;9.7;;;2.7;;
6561;SDS011;3314;50.890;4.722;2022-08-30T03:01:55;8.9;;;2.9;;
6561;SDS011;3314;50.890;4.722;2022-08-30T03:03:55;10.8;;;3.4;;
6561;SDS011;3314;50.890;4.722;2022-08-30T03:05:54;12.3;;;3.2;;
6561;SDS011;3314;50.890;4.722;2022-08-30T03:07:54;10.4;;;3.0;;
6561;SDS011;3314;50.890;4.722;2022-08-30T03:09:54;11.4;;;3.1;;
6561;SDS011;3314;50.890;4.722;2022-08-30T03:11:53;14.9;;;3.5;;
6561;SDS011;3314;50.890;4.722;2022-08-30T03:13:53;11.2;;;3.3;;
6561;SDS011;3314;50.890;4.722;2022-08-30T03:15:53;11.7;;;3.0;;
6561;SDS011;3314;50.890;4.722;2022-08-30T03:17:53;13.1;;;3.6;;
6561;SDS011;3314;50.890;4.722;2022-08-30T03:19:53;12.4;;;4.0;;
6561;SDS011;3314;50.890;4.722;2022-08-30T03:21:53;11.7;;;3.4;;
6561;SDS011;3314;50.890;4.722;2022-08-30T03:23:52;12.1;;;3.5;;
6561;SDS011;3314;50.890;4.722;2022-08-30T03:25:52;11.1;;;3.5;;
6561;SDS011;3314;50.890;4.722;2022-08-30T03:27:52;9.3;;;2.7;;
6561;SDS011;3314;50.890;4.722;2022-08-30T03:29:52;15.2;;;3.8;;
6561;SDS011;3314;50.890;4.722;2022-08-30T03:31:51;13.1;;;3.1;;
6561;SDS011;3314;50.890;4.722;2022-08-30T03:33:51;11.5;;;3.4;;
6561;SDS011;3314;50.890;4.722;2022-08-30T03:35:53;11.8;;;3.0;;
6561;SDS011;3314;50.890;4.722;2022-08-30T03:37:53;12.1;;;3.4;;
6561;SDS011;3314;50.890;4.722;2022-08-30T03:39:53;12.5;;;3.6;;
6561;SDS011;3314;50.890;4.722;2022-08-30T03:41:53;14.0;;;3.5;;
6561;SDS011;3314;50.890;4.722;2022-08-30T03:43:52;11.9;;;3.5;;
6561;SDS011;3314;50.890;4.722;2022-08-30T03:45:52;12.6;;;3.4;;
6561;SDS011;3314;50.890;4.722;2022-08-30T03:47:51;10.0;;;2.8;;
6561;SDS011;3314;50.890;4.722;2022-08-30T03:49:51;13.5;;;3.4;;
6561;SDS011;3314;50.890;4.722;2022-08-30T03:51:51;10.8;;;3.5;;
6561;SDS011;3314;50.890;4.722;2022-08-30T03:53:50;15.2;;;3.9;;
6561;SDS011;3314;50.890;4.722;2022-08-30T03:55:50;13.0;;;3.8;;
6561;SDS011;3314;50.890;4.722;2022-08-30T03:57:50;12.5;;;3.2;;
6561;SDS011;3314;50.890;4.722;2022-08-30T03:59:49;10.7;;;2.8;;
6561;SDS011;3314;50.890;4.722;2022-08-30T04:01:49;10.6;;;3.5;;
6561;SDS011;3314;50.890;4.722;2022-08-30T04:03:49;12.2;;;3.4;;
6561;SDS011;3314;50.890;4.722;2022-08-30T04:05:49;13.6;;;3.6;;
6561;SDS011;3314;50.890;4.722;2022-08-30T04:07:48;12.4;;;3.9;;
6561;SDS011;3314;50.890;4.722;2022-08-30T04:09:48;9.7;;;2.8;;
6561;SDS011;3314;50.890;4.722;2022-08-30T04:11:48;13.5;;;3.8;;
6561;SDS011;3314;50.890;4.722;2022-08-30T04:13:48;13.4;;;3.4;;
6561;SDS011;3314;50.890;4.722;2022-08-30T04:15:48;13.8;;;3.5;;
6561;SDS011;3314;50.890;4.722;2022-08-30T04:17:48;14.3;;;3.6;;
6561;SDS011;3314;50.890;4.722;2022-08-30T04:19:48;11.8;;;3.7;;
6561;SDS011;3314;50.890;4.722;2022-08-30T04:21:47;13.2;;;3.5;;
6561;SDS011;3314;50.890;4.722;2022-08-30T04:23:47;12.6;;;3.8;;
6561;SDS011;3314;50.890;4.722;2022-08-30T04:25:47;13.9;;;4.2;;
6561;SDS011;3314;50.890;4.722;2022-08-30T04:27:46;13.9;;;3.5;;
6561;SDS011;3314;50.890;4.722;2022-08-30T04:29:47;13.1;;;3.7;;
6561;SDS011;3314;50.890;4.722;2022-08-30T04:31:46;11.1;;;3.3;;
6561;SDS011;3314;50.890;4.722;2022-08-30T04:33:46;14.7;;;3.9;;
6561;SDS011;3314;50.890;4.722;2022-08-30T04:35:47;12.4;;;3.3;;
6561;SDS011;3314;50.890;4.722;2022-08-30T04:37:47;10.8;;;3.3;;
6561;SDS011;3314;50.890;4.722;2022-08-30T04:39:48;11.4;;;3.5;;
6561;SDS011;3314;50.890;4.722;2022-08-30T04:41:47;15.9;;;4.1;;
6561;SDS011;3314;50.890;4.722;2022-08-30T04:43:47;16.1;;;4.4;;
6561;SDS011;3314;50.890;4.722;2022-08-30T04:45:47;17.0;;;4.5;;
6561;SDS011;3314;50.890;4.722;2022-08-30T04:47:49;15.0;;;4.0;;
6561;SDS011;3314;50.890;4.722;2022-08-30T04:49:49;12.9;;;3.7;;
6561;SDS011;3314;50.890;4.722;2022-08-30T04:51:49;13.2;;;3.6;;
6561;SDS011;3314;50.890;4.722;2022-08-30T04:53:48;13.0;;;4.1;;
6561;SDS011;3314;50.890;4.722;2022-08-30T04:55:48;15.8;;;4.0;;
6561;SDS011;3314;50.890;4.722;2022-08-30T04:57:48;15.0;;;3.8;;
6561;SDS011;3314;50.890;4.722;2022-08-30T04:59:47;12.8;;;3.5;;
6561;SDS011;3314;50.890;4.722;2022-08-30T05:01:48;14.3;;;3.7;;
6561;SDS011;3314;50.890;4.722;2022-08-30T05:03:48;13.5;;;4.1;;
6561;SDS011;3314;50.890;4.722;2022-08-30T05:05:47;15.1;;;4.1;;
6561;SDS011;3314;50.890;4.722;2022-08-30T05:07:47;17.6;;;4.8;;
6561;SDS011;3314;50.890;4.722;2022-08-30T05:09:47;12.1;;;3.7;;
6561;SDS011;3314;50.890;4.722;2022-08-30T05:11:47;12.6;;;3.8;;
6561;SDS011;3314;50.890;4.722;2022-08-30T05:13:47;15.3;;;3.7;;
6561;SDS011;3314;50.890;4.722;2022-08-30T05:15:47;15.1;;;4.3;;
6561;SDS011;3314;50.890;4.722;2022-08-30T05:17:47;11.7;;;4.3;;
6561;SDS011;3314;50.890;4.722;2022-08-30T05:19:46;14.8;;;4.1;;
6561;SDS011;3314;50.890;4.722;2022-08-30T05:21:46;11.7;;;3.8;;
6561;SDS011;3314;50.890;4.722;2022-08-30T05:23:46;14.7;;;4.3;;
6561;SDS011;3314;50.890;4.722;2022-08-30T05:25:46;11.2;;;3.5;;
6561;SDS011;3314;50.890;4.722;2022-08-30T05:27:45;12.6;;;3.6;;
6561;SDS011;3314;50.890;4.722;2022-08-30T05:29:45;18.1;;;4.6;;
6561;SDS011;3314;50.890;4.722;2022-08-30T05:31:45;15.5;;;4.2;;
6561;SDS011;3314;50.890;4.722;2022-08-30T05:33:45;19.9;;;5.1;;
6561;SDS011;3314;50.890;4.722;2022-08-30T05:35:45;16.4;;;4.5;;
6561;SDS011;3314;50.890;4.722;2022-08-30T05:37:45;16.2;;;4.0;;
6561;SDS011;3314;50.890;4.722;2022-08-30T05:39:45;12.9;;;3.7;;
6561;SDS011;3314;50.890;4.722;2022-08-30T05:41:44;26.5;;;4.5;;
6561;SDS011;3314;50.890;4.722;2022-08-30T05:43:44;12.3;;;4.3;;
6561;SDS011;3314;50.890;4.722;2022-08-30T05:45:44;14.3;;;4.2;;
6561;SDS011;3314;50.890;4.722;2022-08-30T05:47:43;13.0;;;4.3;;
6561;SDS011;3314;50.890;4.722;2022-08-30T05:49:43;12.6;;;4.2;;
6561;SDS011;3314;50.890;4.722;2022-08-30T05:51:43;13.8;;;4.9;;
6561;SDS011;3314;50.890;4.722;2022-08-30T05:53:43;14.9;;;4.4;;
6561;SDS011;3314;50.890;4.722;2022-08-30T05:55:43;13.3;;;4.7;;
6561;SDS011;3314;50.890;4.722;2022-08-30T05:57:43;18.5;;;5.1;;
6561;SDS011;3314;50.890;4.722;2022-08-30T05:59:43;13.6;;;4.9;;
6561;SDS011;3314;50.890;4.722;2022-08-30T06:01:43;16.6;;;4.6;;
6561;SDS011;3314;50.890;4.722;2022-08-30T06:03:43;15.0;;;4.4;;
6561;SDS011;3314;50.890;4.722;2022-08-30T06:05:43;15.3;;;4.8;;
6561;SDS011;3314;50.890;4.722;2022-08-30T06:07:43;11.8;;;4.4;;
6561;SDS011;3314;50.890;4.722;2022-08-30T06:09:43;12.7;;;4.5;;
6561;SDS011;3314;50.890;4.722;2022-08-30T06:11:43;13.0;;;4.4;;
6561;SDS011;3314;50.890;4.722;2022-08-30T06:13:43;12.5;;;4.8;;
6561;SDS011;3314;50.890;4.722;2022-08-30T06:15:44;12.0;;;3.7;;
6561;SDS011;3314;50.890;4.722;2022-08-30T06:17:44;10.7;;;4.1;;
6561;SDS011;3314;50.890;4.722;2022-08-30T06:19:43;14.3;;;3.9;;
6561;SDS011;3314;50.890;4.722;2022-08-30T06:21:45;10.6;;;3.9;;
6561;SDS011;3314;50.890;4.722;2022-08-30T06:23:35;16.8;;;4.7;;
6561;SDS011;3314;50.890;4.722;2022-08-30T06:25:36;17.2;;;4.1;;
6561;SDS011;3314;50.890;4.722;2022-08-30T06:27:35;16.9;;;5.3;;
6561;SDS011;3314;50.890;4.722;2022-08-30T06:29:35;13.7;;;4.6;;
6561;SDS011;3314;50.890;4.722;2022-08-30T06:31:35;13.1;;;4.6;;
6561;SDS011;3314;50.890;4.722;2022-08-30T06:33:35;11.3;;;4.4;;
6561;SDS011;3314;50.890;4.722;2022-08-30T06:35:35;16.1;;;5.0;;
6561;SDS011;3314;50.890;4.722;2022-08-30T06:37:34;12.6;;;4.5;;
6561;SDS011;3314;50.890;4.722;2022-08-30T06:39:35;11.8;;;4.5;;
6561;SDS011;3314;50.890;4.722;2022-08-30T06:41:35;11.9;;;4.6;;
6561;SDS011;3314;50.890;4.722;2022-08-30T06:43:35;12.5;;;4.8;;
6561;SDS011;3314;50.890;4.722;2022-08-30T06:45:35;14.3;;;4.6;;
6561;SDS011;3314;50.890;4.722;2022-08-30T06:47:34;13.1;;;5.2;;
6561;SDS011;3314;50.890;4.722;2022-08-30T06:49:34;13.1;;;4.6;;
6561;SDS011;3314;50.890;4.722;2022-08-30T06:51:35;12.8;;;4.4;;
6561;SDS011;3314;50.890;4.722;2022-08-30T06:53:35;11.7;;;4.6;;
6561;SDS011;3314;50.890;4.722;2022-08-30T06:55:35;14.3;;;5.0;;
6561;SDS011;3314;50.890;4.722;2022-08-30T06:57:34;15.4;;;4.4;;
6561;SDS011;3314;50.890;4.722;2022-08-30T06:59:34;15.2;;;4.7;;
6561;SDS011;3314;50.890;4.722;2022-08-30T07:01:34;10.8;;;4.7;;
6561;SDS011;3314;50.890;4.722;2022-08-30T07:03:33;15.6;;;4.6;;
6561;SDS011;3314;50.890;4.722;2022-08-30T07:05:33;13.5;;;5.1;;
6561;SDS011;3314;50.890;4.722;2022-08-30T07:07:33;14.3;;;4.9;;
6561;SDS011;3314;50.890;4.722;2022-08-30T07:09:34;14.3;;;5.2;;
6561;SDS011;3314;50.890;4.722;2022-08-30T07:11:35;13.0;;;4.7;;
6561;SDS011;3314;50.890;4.722;2022-08-30T07:13:36;14.0;;;5.0;;
6561;SDS011;3314;50.890;4.722;2022-08-30T07:15:39;12.5;;;4.5;;
6561;SDS011;3314;50.890;4.722;2022-08-30T07:19:45;15.0;;;5.1;;
6561;SDS011;3314;50.890;4.722;2022-08-30T07:19:59;14.0;;;4.8;;
6561;SDS011;3314;50.890;4.722;2022-08-30T07:21:35;16.6;;;5.1;;
6561;SDS011;3314;50.890;4.722;2022-08-30T07:23:35;17.6;;;5.4;;
6561;SDS011;3314;50.890;4.722;2022-08-30T07:25:35;12.7;;;4.6;;
6561;SDS011;3314;50.890;4.722;2022-08-30T07:27:35;13.6;;;5.5;;
6561;SDS011;3314;50.890;4.722;2022-08-30T07:29:34;16.6;;;4.7;;
6561;SDS011;3314;50.890;4.722;2022-08-30T07:31:35;13.1;;;4.8;;
6561;SDS011;3314;50.890;4.722;2022-08-30T07:33:35;14.4;;;4.7;;
6561;SDS011;3314;50.890;4.722;2022-08-30T07:35:36;13.7;;;4.7;;
6561;SDS011;3314;50.890;4.722;2022-08-30T07:37:36;12.0;;;4.2;;
6561;SDS011;3314;50.890;4.722;2022-08-30T07:39:35;15.5;;;3.8;;
6561;SDS011;3314;50.890;4.722;2022-08-30T07:41:37;14.4;;;5.0;;
6561;SDS011;3314;50.890;4.722;2022-08-30T07:43:37;16.9;;;5.2;;
6561;SDS011;3314;50.890;4.722;2022-08-30T07:45:37;11.1;;;4.2;;
6561;SDS011;3314;50.890;4.722;2022-08-30T07:47:37;13.2;;;4.4;;
6561;SDS011;3314;50.890;4.722;2022-08-30T07:49:37;11.4;;;4.1;;
6561;SDS011;3314;50.890;4.722;2022-08-30T07:51:37;12.5;;;4.3;;
6561;SDS011;3314;50.890;4.722;2022-08-30T07:53:37;12.2;;;4.8;;
6561;SDS011;3314;50.890;4.722;2022-08-30T07:55:37;14.7;;;4.8;;
6561;SDS011;3314;50.890;4.722;2022-08-30T07:57:36;16.3;;;5.0;;
6561;SDS011;3314;50.890;4.722;2022-08-30T07:59:36;12.3;;;4.1;;
6561;SDS011;3314;50.890;4.722;2022-08-30T08:01:41;11.9;;;4.2;;
6561;SDS011;3314;50.890;4.722;2022-08-30T08:03:34;14.4;;;4.1;;
6561;SDS011;3314;50.890;4.722;2022-08-30T08:05:35;14.9;;;3.7;;
6561;SDS011;3314;50.890;4.722;2022-08-30T08:07:35;11.7;;;4.1;;
6561;SDS011;3314;50.890;4.722;2022-08-30T08:09:35;14.4;;;3.5;;
6561;SDS011;3314;50.890;4.722;2022-08-30T08:11:35;14.8;;;4.0;;
6561;SDS011;3314;50.890;4.722;2022-08-30T08:13:35;14.8;;;4.3;;
6561;SDS011;3314;50.890;4.722;2022-08-30T08:15:40;15.0;;;3.7;;
6561;SDS011;3314;50.890;4.722;2022-08-30T08:17:32;10.5;;;3.4;;
6561;SDS011;3314;50.890;4.722;2022-08-30T08:19:33;16.4;;;3.9;;
6561;SDS011;3314;50.890;4.722;2022-08-30T08:21:34;12.3;;;3.2;;
6561;SDS011;3314;50.890;4.722;2022-08-30T08:23:34;11.9;;;3.4;;
6561;SDS011;3314;50.890;4.722;2022-08-30T08:25:37;13.7;;;3.7;;
6561;SDS011;3314;50.890;4.722;2022-08-30T08:27:28;12.0;;;3.3;;
6561;SDS011;3314;50.890;4.722;2022-08-30T08:29:28;12.0;;;3.2;;
6561;SDS011;3314;50.890;4.722;2022-08-30T08:31:32;12.8;;;3.9;;
6561;SDS011;3314;50.890;4.722;2022-08-30T08:33:37;11.8;;;3.1;;
6561;SDS011;3314;50.890;4.722;2022-08-30T08:35:31;11.7;;;2.8;;
6561;SDS011;3314;50.890;4.722;2022-08-30T08:37:35;12.9;;;3.4;;
6561;SDS011;3314;50.890;4.722;2022-08-30T08:39:36;13.9;;;3.5;;
6561;SDS011;3314;50.890;4.722;2022-08-30T08:41:45;10.9;;;3.4;;
6561;SDS011;3314;50.890;4.722;2022-08-30T08:43:26;12.2;;;3.4;;
6561;SDS011;3314;50.890;4.722;2022-08-30T08:45:30;11.4;;;2.8;;
6561;SDS011;3314;50.890;4.722;2022-08-30T08:47:34;13.1;;;2.9;;
6561;SDS011;3314;50.890;4.722;2022-08-30T08:49:25;10.0;;;3.0;;
6561;SDS011;3314;50.890;4.722;2022-08-30T08:53:32;11.8;;;3.4;;
6561;SDS011;3314;50.890;4.722;2022-08-30T08:53:47;11.8;;;2.6;;
6561;SDS011;3314;50.890;4.722;2022-08-30T08:55:25;10.7;;;2.4;;
6561;SDS011;3314;50.890;4.722;2022-08-30T08:57:25;11.6;;;3.3;;
6561;SDS011;3314;50.890;4.722;2022-08-30T08:59:27;12.3;;;3.3;;
6561;SDS011;3314;50.890;4.722;2022-08-30T09:01:28;9.6;;;2.8;;
6561;SDS011;3314;50.890;4.722;2022-08-30T09:03:28;12.9;;;3.5;;
6561;SDS011;3314;50.890;4.722;2022-08-30T09:05:28;15.5;;;3.4;;
6561;SDS011;3314;50.890;4.722;2022-08-30T09:07:31;11.3;;;2.9;;
6561;SDS011;3314;50.890;4.722;2022-08-30T09:09:34;10.6;;;2.7;;
6561;SDS011;3314;50.890;4.722;2022-08-30T09:11:35;11.5;;;2.5;;
6561;SDS011;3314;50.890;4.722;2022-08-30T09:13:25;12.4;;;3.2;;
6561;SDS011;3314;50.890;4.722;2022-08-30T09:15:26;13.4;;;3.3;;
6561;SDS011;3314;50.890;4.722;2022-08-30T09:17:25;9.1;;;2.8;;
6561;SDS011;3314;50.890;4.722;2022-08-30T09:19:26;18.7;;;4.0;;
6561;SDS011;3314;50.890;4.722;2022-08-30T09:21:26;12.2;;;3.6;;
6561;SDS011;3314;50.890;4.722;2022-08-30T09:23:27;10.6;;;2.8;;
6561;SDS011;3314;50.890;4.722;2022-08-30T09:25:27;13.6;;;2.8;;
6561;SDS011;3314;50.890;4.722;2022-08-30T09:27:30;10.5;;;2.9;;
6561;SDS011;3314;50.890;4.722;2022-08-30T09:29:30;10.8;;;3.0;;
6561;SDS011;3314;50.890;4.722;2022-08-30T09:31:47;16.5;;;2.9;;
6561;SDS011;3314;50.890;4.722;2022-08-30T09:33:29;10.4;;;2.4;;
6561;SDS011;3314;50.890;4.722;2022-08-30T09:35:32;10.4;;;2.9;;
6561;SDS011;3314;50.890;4.722;2022-08-30T09:37:34;9.9;;;3.0;;
6561;SDS011;3314;50.890;4.722;2022-08-30T09:39:25;10.1;;;2.6;;
6561;SDS011;3314;50.890;4.722;2022-08-30T09:41:28;10.5;;;3.4;;
6561;SDS011;3314;50.890;4.722;2022-08-30T09:43:30;12.3;;;2.8;;
6561;SDS011;3314;50.890;4.722;2022-08-30T09:45:32;12.0;;;2.4;;
6561;SDS011;3314;50.890;4.722;2022-08-30T09:47:32;9.9;;;3.1;;
6561;SDS011;3314;50.890;4.722;2022-08-30T09:49:33;8.7;;;2.2;;
6561;SDS011;3314;50.890;4.722;2022-08-30T09:51:31;12.4;;;2.7;;
6561;SDS011;3314;50.890;4.722;2022-08-30T09:53:24;9.7;;;2.7;;
6561;SDS011;3314;50.890;4.722;2022-08-30T09:55:36;9.3;;;2.3;;
6561;SDS011;3314;50.890;4.722;2022-08-30T09:57:29;8.9;;;2.5;;
6561;SDS011;3314;50.890;4.722;2022-08-30T09:59:35;10.4;;;2.1;;
6561;SDS011;3314;50.890;4.722;2022-08-30T10:01:31;13.0;;;2.6;;
6561;SDS011;3314;50.890;4.722;2022-08-30T10:03:25;10.4;;;2.2;;
6561;SDS011;3314;50.890;4.722;2022-08-30T10:05:29;13.7;;;2.2;;
6561;SDS011;3314;50.890;4.722;2022-08-30T10:07:31;13.7;;;2.8;;
6561;SDS011;3314;50.890;4.722;2022-08-30T10:09:34;11.8;;;2.2;;
6561;SDS011;3314;50.890;4.722;2022-08-30T10:11:27;12.9;;;2.1;;
6561;SDS011;3314;50.890;4.722;2022-08-30T10:13:48;13.5;;;2.6;;
6561;SDS011;3314;50.890;4.722;2022-08-30T10:15:27;11.6;;;2.1;;
6561;SDS011;3314;50.890;4.722;2022-08-30T10:17:32;10.1;;;2.6;;
6561;SDS011;3314;50.890;4.722;2022-08-30T10:19:23;7.9;;;1.8;;
6561;SDS011;3314;50.890;4.722;2022-08-30T10:21:25;10.1;;;2.0;;
6561;SDS011;3314;50.890;4.722;2022-08-30T10:23:27;11.5;;;2.2;;
6561;SDS011;3314;50.890;4.722;2022-08-30T10:25:31;9.0;;;2.0;;
6561;SDS011;3314;50.890;4.722;2022-08-30T10:27:33;11.8;;;2.5;;
6561;SDS011;3314;50.890;4.722;2022-08-30T10:29:24;9.3;;;2.1;;
6561;SDS011;3314;50.890;4.722;2022-08-30T10:31:27;8.8;;;2.4;;
6561;SDS011;3314;50.890;4.722;2022-08-30T10:33:31;9.5;;;2.3;;
6561;SDS011;3314;50.890;4.722;2022-08-30T10:35:33;12.2;;;2.1;;
6561;SDS011;3314;50.890;4.722;2022-08-30T10:37:24;10.4;;;2.0;;
6561;SDS011;3314;50.890;4.722;2022-08-30T10:39:25;11.3;;;2.2;;
6561;SDS011;3314;50.890;4.722;2022-08-30T10:41:28;10.3;;;2.2;;
6561;SDS011;3314;50.890;4.722;2022-08-30T10:43:23;10.6;;;2.5;;
6561;SDS011;3314;50.890;4.722;2022-08-30T10:45:23;12.6;;;2.1;;
6561;SDS011;3314;50.890;4.722;2022-08-30T10:47:27;10.2;;;2.9;;
6561;SDS011;3314;50.890;4.722;2022-08-30T10:49:28;9.1;;;2.3;;
6561;SDS011;3314;50.890;4.722;2022-08-30T10:51:30;10.3;;;2.7;;
6561;SDS011;3314;50.890;4.722;2022-08-30T10:53:31;11.3;;;2.1;;
6561;SDS011;3314;50.890;4.722;2022-08-30T10:55:36;13.1;;;2.3;;
6561;SDS011;3314;50.890;4.722;2022-08-30T10:57:25;10.7;;;2.4;;
6561;SDS011;3314;50.890;4.722;2022-08-30T10:59:25;8.2;;;1.9;;
6561;SDS011;3314;50.890;4.722;2022-08-30T11:01:34;9.3;;;2.1;;
6561;SDS011;3314;50.890;4.722;2022-08-30T11:03:52;11.0;;;2.3;;
6561;SDS011;3314;50.890;4.722;2022-08-30T11:05:29;8.9;;;2.0;;
6561;SDS011;3314;50.890;4.722;2022-08-30T11:07:35;12.2;;;3.2;;
6561;SDS011;3314;50.890;4.722;2022-08-30T11:09:29;11.8;;;2.3;;
6561;SDS011;3314;50.890;4.722;2022-08-30T11:11:32;8.9;;;1.9;;
6561;SDS011;3314;50.890;4.722;2022-08-30T11:13:24;12.8;;;2.1;;
6561;SDS011;3314;50.890;4.722;2022-08-30T11:15:32;10.4;;;2.0;;
6561;SDS011;3314;50.890;4.722;2022-08-30T11:17:27;12.2;;;2.1;;
6561;SDS011;3314;50.890;4.722;2022-08-30T11:19:28;9.1;;;2.1;;
6561;SDS011;3314;50.890;4.722;2022-08-30T11:21:23;8.7;;;2.2;;
6561;SDS011;3314;50.890;4.722;2022-08-30T11:23:24;9.4;;;1.9;;
6561;SDS011;3314;50.890;4.722;2022-08-30T11:25:46;11.8;;;1.8;;
6561;SDS011;3314;50.890;4.722;2022-08-30T11:27:38;10.7;;;2.7;;
6561;SDS011;3314;50.890;4.722;2022-08-30T11:29:28;12.1;;;2.0;;
6561;SDS011;3314;50.890;4.722;2022-08-30T11:31:35;12.1;;;1.9;;
6561;SDS011;3314;50.890;4.722;2022-08-30T11:33:28;8.5;;;2.1;;
6561;SDS011;3314;50.890;4.722;2022-08-30T11:35:37;10.9;;;2.0;;
6561;SDS011;3314;50.890;4.722;2022-08-30T11:37:34;9.6;;;1.9;;
6561;SDS011;3314;50.890;4.722;2022-08-30T11:39:54;11.5;;;2.0;;
6561;SDS011;3314;50.890;4.722;2022-08-30T11:41:36;9.5;;;1.8;;
6561;SDS011;3314;50.890;4.722;2022-08-30T11:43:55;11.1;;;2.5;;
6561;SDS011;3314;50.890;4.722;2022-08-30T11:45:54;10.9;;;2.1;;
6561;SDS011;3314;50.890;4.722;2022-08-30T11:47:41;11.2;;;2.7;;
6561;SDS011;3314;50.890;4.722;2022-08-30T11:49:40;10.5;;;2.3;;
6561;SDS011;3314;50.890;4.722;2022-08-30T11:51:25;10.4;;;2.3;;
6561;SDS011;3314;50.890;4.722;2022-08-30T11:53:28;8.3;;;1.9;;
6561;SDS011;3314;50.890;4.722;2022-08-30T11:55:24;9.7;;;1.6;;
6561;SDS011;3314;50.890;4.722;2022-08-30T11:57:28;11.0;;;1.8;;
6561;SDS011;3314;50.890;4.722;2022-08-30T11:59:32;11.4;;;1.9;;
6561;SDS011;3314;50.890;4.722;2022-08-30T12:01:32;10.7;;;2.3;;
6561;SDS011;3314;50.890;4.722;2022-08-30T12:03:27;8.6;;;1.5;;
6561;SDS011;3314;50.890;4.722;2022-08-30T12:06:05;10.9;;;2.3;;
6561;SDS011;3314;50.890;4.722;2022-08-30T12:08:05;10.7;;;2.1;;
6561;SDS011;3314;50.890;4.722;2022-08-30T12:10:00;9.3;;;1.6;;
6561;SDS011;3314;50.890;4.722;2022-08-30T12:11:56;8.5;;;1.8;;
6561;SDS011;3314;50.890;4.722;2022-08-30T12:13:51;11.7;;;2.0;;
6561;SDS011;3314;50.890;4.722;2022-08-30T12:15:50;12.9;;;2.2;;
6561;SDS011;3314;50.890;4.722;2022-08-30T12:18:41;7.7;;;1.8;;
6561;SDS011;3314;50.890;4.722;2022-08-30T12:19:30;11.3;;;2.0;;
6561;SDS011;3314;50.890;4.722;2022-08-30T12:21:31;14.9;;;2.1;;
6561;SDS011;3314;50.890;4.722;2022-08-30T12:23:26;10.1;;;2.5;;
6561;SDS011;3314;50.890;4.722;2022-08-30T12:25:29;8.9;;;2.4;;
6561;SDS011;3314;50.890;4.722;2022-08-30T12:27:31;10.4;;;2.3;;
6561;SDS011;3314;50.890;4.722;2022-08-30T12:29:22;13.4;;;2.2;;
6561;SDS011;3314;50.890;4.722;2022-08-30T12:31:24;9.5;;;2.0;;
6561;SDS011;3314;50.890;4.722;2022-08-30T12:33:25;15.0;;;2.5;;
6561;SDS011;3314;50.890;4.722;2022-08-30T12:35:27;11.2;;;2.2;;
6561;SDS011;3314;50.890;4.722;2022-08-30T12:37:28;9.3;;;1.7;;